Brockton, Montana
Current Conditions -  °F | °C
As of 1:53 PM on Wednesday 17 Dec 2014 (Local Time) from KOLF Reporting Station
Overcast Overcast  
Wind Chill: 15°   Ceiling: 1300
Heat Index: 24°   Visibility: 10mi
Dew Point: 17°   Wind: 8mph
Humidity: 75%   Direction: 110°ESE
Pressure: 30.05"   Gusts: NA
Location:  48.15°N, 104.92°W
Report Text: KOLF 172053Z AUTO 11007KT 10SM OVC013 M04/M08 A3005 RMK AO2 SLP211 T10441083 56018
Loading
Personal Weather Stations






























Interactive Weather Map New forecast layout! Learn more

10-Day Weather Forecast

Advertisements
Track Severe Weather on mobile